sensor_id;sensor_type;location;lat;lon;timestamp;pressure;altitude;pressure_sealevel;temperature;humidity
55538;BME280;41383;51.418;7.286;2023-07-22T00:00:48;99707.59;;;17.66;55.33
55538;BME280;41383;51.418;7.286;2023-07-22T00:03:13;99705.78;;;17.61;55.19
55538;BME280;41383;51.418;7.286;2023-07-22T00:05:40;99694.78;;;17.61;54.93
55538;BME280;41383;51.418;7.286;2023-07-22T00:08:05;99709.78;;;17.78;54.99
55538;BME280;41383;51.418;7.286;2023-07-22T00:10:31;99704.84;;;17.66;54.42
55538;BME280;41383;51.418;7.286;2023-07-22T00:12:56;99703.22;;;17.65;54.99
55538;BME280;41383;51.418;7.286;2023-07-22T00:15:21;99699.56;;;17.78;54.46
55538;BME280;41383;51.418;7.286;2023-07-22T00:17:49;99702.72;;;17.62;54.96
55538;BME280;41383;51.418;7.286;2023-07-22T00:20:14;99698.81;;;17.64;55.06
55538;BME280;41383;51.418;7.286;2023-07-22T00:22:41;99693.50;;;17.67;55.20
55538;BME280;41383;51.418;7.286;2023-07-22T00:25:10;99692.25;;;17.73;54.76
55538;BME280;41383;51.418;7.286;2023-07-22T00:27:40;99699.63;;;17.87;54.49
55538;BME280;41383;51.418;7.286;2023-07-22T00:30:07;99699.19;;;17.94;54.54
55538;BME280;41383;51.418;7.286;2023-07-22T00:32:32;99690.94;;;17.71;54.68
55538;BME280;41383;51.418;7.286;2023-07-22T00:34:58;99682.28;;;17.64;55.06
55538;BME280;41383;51.418;7.286;2023-07-22T00:37:23;99692.31;;;17.59;55.11
55538;BME280;41383;51.418;7.286;2023-07-22T00:39:49;99685.00;;;17.55;55.28
55538;BME280;41383;51.418;7.286;2023-07-22T00:42:14;99683.94;;;17.65;55.01
55538;BME280;41383;51.418;7.286;2023-07-22T00:44:39;99692.06;;;17.70;55.08
55538;BME280;41383;51.418;7.286;2023-07-22T00:47:05;99692.06;;;17.70;55.14
55538;BME280;41383;51.418;7.286;2023-07-22T00:49:30;99687.00;;;17.63;55.04
55538;BME280;41383;51.418;7.286;2023-07-22T00:52:01;99682.50;;;17.67;54.61
55538;BME280;41383;51.418;7.286;2023-07-22T00:54:27;99680.00;;;17.57;54.96
55538;BME280;41383;51.418;7.286;2023-07-22T00:56:53;99684.09;;;17.45;55.35
55538;BME280;41383;51.418;7.286;2023-07-22T00:59:19;99676.84;;;17.49;55.31
55538;BME280;41383;51.418;7.286;2023-07-22T01:01:45;99681.94;;;17.56;54.91
55538;BME280;41383;51.418;7.286;2023-07-22T01:04:13;99680.25;;;17.46;55.16
55538;BME280;41383;51.418;7.286;2023-07-22T01:06:39;99671.41;;;17.35;55.13
55538;BME280;41383;51.418;7.286;2023-07-22T01:09:05;99674.56;;;17.43;55.36
55538;BME280;41383;51.418;7.286;2023-07-22T01:11:32;99667.16;;;17.52;55.21
55538;BME280;41383;51.418;7.286;2023-07-22T01:13:57;99670.25;;;17.59;55.06
55538;BME280;41383;51.418;7.286;2023-07-22T01:16:26;99669.91;;;17.52;55.11
55538;BME280;41383;51.418;7.286;2023-07-22T01:18:52;99668.16;;;17.56;55.14
55538;BME280;41383;51.418;7.286;2023-07-22T01:21:19;99658.53;;;17.45;54.83
55538;BME280;41383;51.418;7.286;2023-07-22T01:23:46;99659.16;;;17.19;55.67
55538;BME280;41383;51.418;7.286;2023-07-22T01:26:12;99653.06;;;17.31;55.74
55538;BME280;41383;51.418;7.286;2023-07-22T01:28:38;99665.47;;;17.42;55.37
55538;BME280;41383;51.418;7.286;2023-07-22T01:31:03;99658.88;;;17.52;55.04
55538;BME280;41383;51.418;7.286;2023-07-22T01:33:30;99661.31;;;17.54;55.60
55538;BME280;41383;51.418;7.286;2023-07-22T01:35:56;99654.88;;;17.58;55.40
55538;BME280;41383;51.418;7.286;2023-07-22T01:38:21;99667.66;;;17.54;55.45
55538;BME280;41383;51.418;7.286;2023-07-22T01:40:46;99668.38;;;17.69;55.28
55538;BME280;41383;51.418;7.286;2023-07-22T01:43:12;99653.03;;;17.77;54.79
55538;BME280;41383;51.418;7.286;2023-07-22T01:45:38;99657.63;;;17.58;55.16
55538;BME280;41383;51.418;7.286;2023-07-22T01:48:05;99665.13;;;17.67;55.14
55538;BME280;41383;51.418;7.286;2023-07-22T01:50:30;99659.38;;;17.54;55.18
55538;BME280;41383;51.418;7.286;2023-07-22T01:52:55;99656.69;;;17.63;55.53
55538;BME280;41383;51.418;7.286;2023-07-22T01:55:21;99652.28;;;17.62;55.41
55538;BME280;41383;51.418;7.286;2023-07-22T01:57:46;99656.38;;;17.65;55.70
55538;BME280;41383;51.418;7.286;2023-07-22T02:00:12;99656.00;;;17.57;55.55
55538;BME280;41383;51.418;7.286;2023-07-22T02:02:37;99660.78;;;17.43;55.70
55538;BME280;41383;51.418;7.286;2023-07-22T02:05:03;99657.75;;;17.30;56.16
55538;BME280;41383;51.418;7.286;2023-07-22T02:07:28;99655.44;;;17.23;56.18
55538;BME280;41383;51.418;7.286;2023-07-22T02:09:54;99651.31;;;17.35;56.49
55538;BME280;41383;51.418;7.286;2023-07-22T02:12:20;99648.50;;;17.26;56.86
55538;BME280;41383;51.418;7.286;2023-07-22T02:14:45;99650.06;;;17.18;57.28
55538;BME280;41383;51.418;7.286;2023-07-22T02:17:11;99652.50;;;17.20;56.71
55538;BME280;41383;51.418;7.286;2023-07-22T02:19:36;99648.03;;;17.10;57.50
55538;BME280;41383;51.418;7.286;2023-07-22T02:22:03;99638.63;;;17.11;57.47
55538;BME280;41383;51.418;7.286;2023-07-22T02:24:29;99640.25;;;17.12;57.45
55538;BME280;41383;51.418;7.286;2023-07-22T02:26:54;99646.81;;;17.16;57.56
55538;BME280;41383;51.418;7.286;2023-07-22T02:29:20;99641.72;;;17.32;57.20
55538;BME280;41383;51.418;7.286;2023-07-22T02:31:45;99645.00;;;17.34;56.98
55538;BME280;41383;51.418;7.286;2023-07-22T02:34:11;99643.84;;;17.35;56.90
55538;BME280;41383;51.418;7.286;2023-07-22T02:36:37;99641.31;;;17.16;57.70
55538;BME280;41383;51.418;7.286;2023-07-22T02:39:02;99640.09;;;17.08;58.03
55538;BME280;41383;51.418;7.286;2023-07-22T02:41:28;99645.25;;;17.24;57.84
55538;BME280;41383;51.418;7.286;2023-07-22T02:43:53;99645.09;;;17.06;58.04
55538;BME280;41383;51.418;7.286;2023-07-22T02:46:18;99645.16;;;17.15;57.80
55538;BME280;41383;51.418;7.286;2023-07-22T02:48:44;99641.13;;;16.98;58.38
55538;BME280;41383;51.418;7.286;2023-07-22T02:51:09;99644.69;;;16.99;58.55
55538;BME280;41383;51.418;7.286;2023-07-22T02:53:36;99644.00;;;16.93;58.53
55538;BME280;41383;51.418;7.286;2023-07-22T02:56:02;99643.31;;;16.87;58.86
55538;BME280;41383;51.418;7.286;2023-07-22T02:58:28;99652.16;;;16.84;58.85
55538;BME280;41383;51.418;7.286;2023-07-22T03:00:53;99644.81;;;16.94;58.63
55538;BME280;41383;51.418;7.286;2023-07-22T03:03:19;99656.47;;;16.76;58.99
55538;BME280;41383;51.418;7.286;2023-07-22T03:05:44;99646.81;;;16.65;59.43
55538;BME280;41383;51.418;7.286;2023-07-22T03:08:10;99648.13;;;16.82;59.17
55538;BME280;41383;51.418;7.286;2023-07-22T03:10:35;99648.44;;;16.80;59.17
55538;BME280;41383;51.418;7.286;2023-07-22T03:13:00;99652.94;;;16.76;58.92
55538;BME280;41383;51.418;7.286;2023-07-22T03:15:29;99653.44;;;16.78;59.29
55538;BME280;41383;51.418;7.286;2023-07-22T03:17:55;99646.25;;;16.91;58.59
55538;BME280;41383;51.418;7.286;2023-07-22T03:20:25;99646.66;;;16.84;58.96
55538;BME280;41383;51.418;7.286;2023-07-22T03:22:51;99651.91;;;16.72;59.29
55538;BME280;41383;51.418;7.286;2023-07-22T03:25:16;99651.22;;;16.52;59.60
55538;BME280;41383;51.418;7.286;2023-07-22T03:27:42;99653.03;;;16.71;59.53
55538;BME280;41383;51.418;7.286;2023-07-22T03:30:08;99656.44;;;16.90;58.97
55538;BME280;41383;51.418;7.286;2023-07-22T03:32:34;99654.06;;;16.61;59.30
55538;BME280;41383;51.418;7.286;2023-07-22T03:35:00;99650.00;;;16.44;59.94
55538;BME280;41383;51.418;7.286;2023-07-22T03:37:26;99653.88;;;16.57;59.92
55538;BME280;41383;51.418;7.286;2023-07-22T03:39:52;99651.63;;;16.59;59.83
55538;BME280;41383;51.418;7.286;2023-07-22T03:42:17;99652.84;;;16.53;59.71
55538;BME280;41383;51.418;7.286;2023-07-22T03:44:42;99664.38;;;16.55;59.63
55538;BME280;41383;51.418;7.286;2023-07-22T03:47:07;99652.88;;;16.39;59.96
55538;BME280;41383;51.418;7.286;2023-07-22T03:49:33;99655.06;;;16.65;59.60
55538;BME280;41383;51.418;7.286;2023-07-22T03:51:58;99652.44;;;16.60;59.55
55538;BME280;41383;51.418;7.286;2023-07-22T03:54:23;99647.16;;;16.49;59.91
55538;BME280;41383;51.418;7.286;2023-07-22T03:56:49;99648.78;;;16.36;60.06
55538;BME280;41383;51.418;7.286;2023-07-22T03:59:14;99648.59;;;16.47;59.93
55538;BME280;41383;51.418;7.286;2023-07-22T04:01:39;99662.03;;;16.34;59.67
55538;BME280;41383;51.418;7.286;2023-07-22T04:04:05;99646.94;;;16.31;60.14
55538;BME280;41383;51.418;7.286;2023-07-22T04:06:30;99646.03;;;16.36;60.38
55538;BME280;41383;51.418;7.286;2023-07-22T04:08:55;99659.69;;;16.13;60.40
55538;BME280;41383;51.418;7.286;2023-07-22T04:11:20;99655.69;;;16.48;59.88
55538;BME280;41383;51.418;7.286;2023-07-22T04:13:46;99650.72;;;16.50;60.02
55538;BME280;41383;51.418;7.286;2023-07-22T04:16:11;99658.03;;;16.54;59.49
55538;BME280;41383;51.418;7.286;2023-07-22T04:18:37;99666.28;;;16.68;59.15
55538;BME280;41383;51.418;7.286;2023-07-22T04:21:02;99660.06;;;16.63;59.53
55538;BME280;41383;51.418;7.286;2023-07-22T04:23:27;99657.50;;;16.66;59.50
55538;BME280;41383;51.418;7.286;2023-07-22T04:25:54;99664.22;;;16.74;58.99
55538;BME280;41383;51.418;7.286;2023-07-22T04:28:19;99667.06;;;16.83;58.71
55538;BME280;41383;51.418;7.286;2023-07-22T04:30:54;99663.81;;;16.81;58.42
55538;BME280;41383;51.418;7.286;2023-07-22T04:33:20;99663.81;;;16.81;58.77
55538;BME280;41383;51.418;7.286;2023-07-22T04:35:45;99668.88;;;17.02;58.25
55538;BME280;41383;51.418;7.286;2023-07-22T04:38:11;99662.94;;;16.95;58.13
55538;BME280;41383;51.418;7.286;2023-07-22T04:40:36;99666.84;;;16.94;57.51
55538;BME280;41383;51.418;7.286;2023-07-22T04:43:02;99667.41;;;17.19;57.69
55538;BME280;41383;51.418;7.286;2023-07-22T04:45:28;99676.59;;;17.14;57.36
55538;BME280;41383;51.418;7.286;2023-07-22T04:47:53;99675.34;;;17.20;57.16
55538;BME280;41383;51.418;7.286;2023-07-22T04:50:18;99676.91;;;17.35;56.47
55538;BME280;41383;51.418;7.286;2023-07-22T04:52:47;99675.53;;;17.24;56.48
55538;BME280;41383;51.418;7.286;2023-07-22T04:55:13;99679.25;;;17.05;55.89
55538;BME280;41383;51.418;7.286;2023-07-22T04:57:40;99672.78;;;17.24;56.27
55538;BME280;41383;51.418;7.286;2023-07-22T05:00:11;99678.63;;;17.22;55.83
55538;BME280;41383;51.418;7.286;2023-07-22T05:02:41;99677.16;;;17.25;56.18
55538;BME280;41383;51.418;7.286;2023-07-22T05:05:09;99664.88;;;17.31;55.95
55538;BME280;41383;51.418;7.286;2023-07-22T05:07:34;99671.66;;;17.25;55.65
55538;BME280;41383;51.418;7.286;2023-07-22T05:10:00;99674.53;;;17.20;55.81
55538;BME280;41383;51.418;7.286;2023-07-22T05:12:25;99678.56;;;17.36;55.80
55538;BME280;41383;51.418;7.286;2023-07-22T05:14:50;99676.41;;;17.33;55.38
55538;BME280;41383;51.418;7.286;2023-07-22T05:17:16;99668.81;;;17.39;55.41
55538;BME280;41383;51.418;7.286;2023-07-22T05:19:41;99666.78;;;17.45;55.31
55538;BME280;41383;51.418;7.286;2023-07-22T05:22:06;99670.91;;;17.56;55.07
55538;BME280;41383;51.418;7.286;2023-07-22T05:24:32;99672.72;;;17.61;55.28
55538;BME280;41383;51.418;7.286;2023-07-22T05:26:58;99668.00;;;17.61;55.08
55538;BME280;41383;51.418;7.286;2023-07-22T05:29:23;99674.16;;;17.58;55.56
55538;BME280;41383;51.418;7.286;2023-07-22T05:31:48;99673.06;;;17.68;54.83
55538;BME280;41383;51.418;7.286;2023-07-22T05:34:13;99678.66;;;17.54;55.45
55538;BME280;41383;51.418;7.286;2023-07-22T05:36:39;99674.84;;;17.64;55.48
55538;BME280;41383;51.418;7.286;2023-07-22T05:39:04;99684.34;;;17.58;55.56
55538;BME280;41383;51.418;7.286;2023-07-22T05:41:30;99683.28;;;17.68;55.27
55538;BME280;41383;51.418;7.286;2023-07-22T05:43:57;99682.66;;;17.71;55.41
55538;BME280;41383;51.418;7.286;2023-07-22T05:46:22;99680.03;;;17.66;55.80
55538;BME280;41383;51.418;7.286;2023-07-22T05:48:47;99690.00;;;17.76;55.46
55538;BME280;41383;51.418;7.286;2023-07-22T05:51:12;99681.91;;;17.79;55.37
55538;BME280;41383;51.418;7.286;2023-07-22T05:53:39;99686.66;;;17.88;54.97
55538;BME280;41383;51.418;7.286;2023-07-22T05:56:05;99682.91;;;17.83;55.34
55538;BME280;41383;51.418;7.286;2023-07-22T05:58:30;99682.03;;;17.74;55.49
55538;BME280;41383;51.418;7.286;2023-07-22T06:00:55;99688.22;;;17.80;55.61
55538;BME280;41383;51.418;7.286;2023-07-22T06:03:21;99686.94;;;17.86;55.62
55538;BME280;41383;51.418;7.286;2023-07-22T06:05:46;99682.84;;;17.74;55.33
55538;BME280;41383;51.418;7.286;2023-07-22T06:08:12;99676.16;;;17.67;56.03
55538;BME280;41383;51.418;7.286;2023-07-22T06:10:37;99673.25;;;17.72;55.68
55538;BME280;41383;51.418;7.286;2023-07-22T06:13:03;99672.81;;;17.79;55.53
55538;BME280;41383;51.418;7.286;2023-07-22T06:15:28;99678.91;;;17.67;55.50
55538;BME280;41383;51.418;7.286;2023-07-22T06:17:54;99673.50;;;17.61;55.61
55538;BME280;41383;51.418;7.286;2023-07-22T06:20:19;99669.16;;;17.60;55.72
55538;BME280;41383;51.418;7.286;2023-07-22T06:22:44;99675.50;;;17.70;55.88
55538;BME280;41383;51.418;7.286;2023-07-22T06:25:10;99685.28;;;17.76;55.49
55538;BME280;41383;51.418;7.286;2023-07-22T06:27:35;99680.53;;;17.68;55.93
55538;BME280;41383;51.418;7.286;2023-07-22T06:30:01;99682.69;;;17.80;55.98
55538;BME280;41383;51.418;7.286;2023-07-22T06:32:26;99682.16;;;17.69;55.80
55538;BME280;41383;51.418;7.286;2023-07-22T06:34:51;99685.66;;;17.83;56.21
55538;BME280;41383;51.418;7.286;2023-07-22T06:37:16;99679.00;;;17.84;56.16
55538;BME280;41383;51.418;7.286;2023-07-22T06:39:42;99674.25;;;17.76;56.01
55538;BME280;41383;51.418;7.286;2023-07-22T06:42:07;99683.53;;;17.80;56.75
55538;BME280;41383;51.418;7.286;2023-07-22T06:44:32;99689.25;;;17.93;56.59
55538;BME280;41383;51.418;7.286;2023-07-22T06:46:57;99686.84;;;18.00;56.70
55538;BME280;41383;51.418;7.286;2023-07-22T06:49:23;99690.44;;;18.01;56.29
55538;BME280;41383;51.418;7.286;2023-07-22T06:51:48;99685.25;;;17.99;56.05
55538;BME280;41383;51.418;7.286;2023-07-22T06:54:13;99687.91;;;17.81;56.05
55538;BME280;41383;51.418;7.286;2023-07-22T06:56:39;99684.03;;;17.82;56.05
55538;BME280;41383;51.418;7.286;2023-07-22T06:59:04;99677.91;;;17.94;56.05
55538;BME280;41383;51.418;7.286;2023-07-22T07:01:29;99678.19;;;18.16;55.76
55538;BME280;41383;51.418;7.286;2023-07-22T07:03:54;99669.91;;;18.16;54.97
55538;BME280;41383;51.418;7.286;2023-07-22T07:06:20;99678.44;;;18.28;55.04
55538;BME280;41383;51.418;7.286;2023-07-22T07:08:45;99679.25;;;18.38;54.66
55538;BME280;41383;51.418;7.286;2023-07-22T07:11:10;99668.06;;;18.43;53.97
55538;BME280;41383;51.418;7.286;2023-07-22T07:13:35;99668.41;;;18.50;54.79
55538;BME280;41383;51.418;7.286;2023-07-22T07:16:23;99673.13;;;18.50;54.24
55538;BME280;41383;51.418;7.286;2023-07-22T07:18:50;99663.59;;;18.65;54.68
55538;BME280;41383;51.418;7.286;2023-07-22T07:21:16;99667.31;;;18.60;54.05
55538;BME280;41383;51.418;7.286;2023-07-22T07:23:42;99668.59;;;18.54;54.18
55538;BME280;41383;51.418;7.286;2023-07-22T07:26:07;99665.34;;;18.61;54.07
55538;BME280;41383;51.418;7.286;2023-07-22T07:28:32;99665.19;;;18.66;53.93
55538;BME280;41383;51.418;7.286;2023-07-22T07:30:57;99671.50;;;18.58;53.86
55538;BME280;41383;51.418;7.286;2023-07-22T07:33:23;99665.94;;;18.40;53.47
55538;BME280;41383;51.418;7.286;2023-07-22T07:35:48;99670.88;;;18.61;54.17
55538;BME280;41383;51.418;7.286;2023-07-22T07:38:13;99679.78;;;18.58;53.17
55538;BME280;41383;51.418;7.286;2023-07-22T07:40:39;99675.28;;;18.71;53.52
55538;BME280;41383;51.418;7.286;2023-07-22T07:43:04;99679.66;;;18.63;53.05
55538;BME280;41383;51.418;7.286;2023-07-22T07:45:29;99674.94;;;18.72;53.20
55538;BME280;41383;51.418;7.286;2023-07-22T07:47:54;99673.34;;;18.71;52.40
55538;BME280;41383;51.418;7.286;2023-07-22T07:50:20;99665.34;;;18.61;52.94
55538;BME280;41383;51.418;7.286;2023-07-22T07:52:45;99679.16;;;18.61;52.70
55538;BME280;41383;51.418;7.286;2023-07-22T07:55:10;99681.13;;;18.69;52.72
55538;BME280;41383;51.418;7.286;2023-07-22T07:57:36;99686.63;;;18.60;52.73
55538;BME280;41383;51.418;7.286;2023-07-22T08:00:02;99682.94;;;18.83;52.44
55538;BME280;41383;51.418;7.286;2023-07-22T08:02:28;99683.41;;;18.85;52.01
55538;BME280;41383;51.418;7.286;2023-07-22T08:04:53;99680.00;;;18.79;52.43
55538;BME280;41383;51.418;7.286;2023-07-22T08:07:18;99685.38;;;18.93;53.41
55538;BME280;41383;51.418;7.286;2023-07-22T08:09:46;99671.88;;;19.00;52.42
55538;BME280;41383;51.418;7.286;2023-07-22T08:12:13;99681.47;;;18.94;52.81
55538;BME280;41383;51.418;7.286;2023-07-22T08:14:39;99681.63;;;18.98;52.12
55538;BME280;41383;51.418;7.286;2023-07-22T08:17:04;99683.78;;;19.10;52.30
55538;BME280;41383;51.418;7.286;2023-07-22T08:19:30;99679.53;;;19.04;52.64
55538;BME280;41383;51.418;7.286;2023-07-22T08:21:55;99676.16;;;19.16;52.01
55538;BME280;41383;51.418;7.286;2023-07-22T08:24:20;99675.00;;;19.17;50.99
55538;BME280;41383;51.418;7.286;2023-07-22T08:26:46;99677.44;;;19.36;51.41
55538;BME280;41383;51.418;7.286;2023-07-22T08:29:11;99680.38;;;19.48;51.70
55538;BME280;41383;51.418;7.286;2023-07-22T08:31:36;99672.56;;;19.42;51.11
55538;BME280;41383;51.418;7.286;2023-07-22T08:34:02;99664.06;;;19.56;50.37
55538;BME280;41383;51.418;7.286;2023-07-22T08:36:27;99678.06;;;19.51;50.09
55538;BME280;41383;51.418;7.286;2023-07-22T08:38:52;99678.25;;;19.36;50.38
55538;BME280;41383;51.418;7.286;2023-07-22T08:41:17;99684.25;;;19.56;50.30
55538;BME280;41383;51.418;7.286;2023-07-22T08:43:45;99688.00;;;19.52;50.15
55538;BME280;41383;51.418;7.286;2023-07-22T08:46:12;99681.00;;;19.54;49.77
55538;BME280;41383;51.418;7.286;2023-07-22T08:48:41;99676.75;;;19.66;49.23
55538;BME280;41383;51.418;7.286;2023-07-22T08:51:10;99678.53;;;19.53;49.07
55538;BME280;41383;51.418;7.286;2023-07-22T08:53:37;99681.31;;;19.62;49.58
55538;BME280;41383;51.418;7.286;2023-07-22T08:56:04;99679.50;;;19.75;49.40
55538;BME280;41383;51.418;7.286;2023-07-22T08:58:30;99674.38;;;19.94;49.40
55538;BME280;41383;51.418;7.286;2023-07-22T09:00:56;99678.13;;;19.90;49.64
55538;BME280;41383;51.418;7.286;2023-07-22T09:03:21;99678.44;;;19.97;49.19
55538;BME280;41383;51.418;7.286;2023-07-22T09:05:47;99673.63;;;19.76;49.43
55538;BME280;41383;51.418;7.286;2023-07-22T09:08:13;99678.63;;;19.92;49.08
55538;BME280;41383;51.418;7.286;2023-07-22T09:10:39;99674.38;;;19.94;49.53
55538;BME280;41383;51.418;7.286;2023-07-22T09:13:05;99678.94;;;19.99;49.28
55538;BME280;41383;51.418;7.286;2023-07-22T09:15:35;99680.22;;;20.11;49.07
55538;BME280;41383;51.418;7.286;2023-07-22T09:18:01;99662.56;;;19.85;49.18
55538;BME280;41383;51.418;7.286;2023-07-22T09:20:27;99677.44;;;20.02;49.18
55538;BME280;41383;51.418;7.286;2023-07-22T09:22:54;99670.00;;;20.33;48.64
55538;BME280;41383;51.418;7.286;2023-07-22T09:25:21;99671.78;;;20.37;48.03
55538;BME280;41383;51.418;7.286;2023-07-22T09:27:49;99687.47;;;20.55;47.86
55538;BME280;41383;51.418;7.286;2023-07-22T09:30:22;99681.41;;;20.61;47.86
55538;BME280;41383;51.418;7.286;2023-07-22T09:32:48;99679.31;;;20.28;48.02
55538;BME280;41383;51.418;7.286;2023-07-22T09:35:13;99679.16;;;20.55;48.92
55538;BME280;41383;51.418;7.286;2023-07-22T09:37:39;99674.09;;;20.57;48.61
55538;BME280;41383;51.418;7.286;2023-07-22T09:40:19;99679.34;;;20.58;47.85
55538;BME280;41383;51.418;7.286;2023-07-22T09:42:49;99677.44;;;20.50;47.75
55538;BME280;41383;51.418;7.286;2023-07-22T09:45:16;99676.13;;;20.47;48.22
55538;BME280;41383;51.418;7.286;2023-07-22T09:47:49;99673.03;;;20.49;48.16
55538;BME280;41383;51.418;7.286;2023-07-22T09:50:22;99688.59;;;20.62;47.85
55538;BME280;41383;51.418;7.286;2023-07-22T09:52:50;99676.34;;;20.63;46.42
55538;BME280;41383;51.418;7.286;2023-07-22T09:55:17;99686.28;;;20.64;46.93
55538;BME280;41383;51.418;7.286;2023-07-22T09:57:48;99675.50;;;20.41;47.31
55538;BME280;41383;51.418;7.286;2023-07-22T10:00:15;99678.88;;;20.77;46.68
55538;BME280;41383;51.418;7.286;2023-07-22T10:02:43;99681.69;;;20.69;46.27
55538;BME280;41383;51.418;7.286;2023-07-22T10:05:20;99673.03;;;20.49;46.24
55538;BME280;41383;51.418;7.286;2023-07-22T10:07:50;99681.84;;;20.72;46.21
55538;BME280;41383;51.418;7.286;2023-07-22T10:10:17;99671.03;;;20.58;45.81
55538;BME280;41383;51.418;7.286;2023-07-22T10:12:43;99677.53;;;20.62;46.37
55538;BME280;41383;51.418;7.286;2023-07-22T10:15:14;99680.50;;;20.79;45.97
55538;BME280;41383;51.418;7.286;2023-07-22T10:17:41;99675.44;;;20.81;45.40
55538;BME280;41383;51.418;7.286;2023-07-22T10:20:10;99678.59;;;20.92;46.02
55538;BME280;41383;51.418;7.286;2023-07-22T10:22:44;99669.63;;;20.95;46.04
55538;BME280;41383;51.418;7.286;2023-07-22T10:25:15;99668.75;;;21.03;45.77
55538;BME280;41383;51.418;7.286;2023-07-22T10:27:41;99665.19;;;21.03;45.76
55538;BME280;41383;51.418;7.286;2023-07-22T10:30:08;99660.09;;;21.26;46.26
55538;BME280;41383;51.418;7.286;2023-07-22T10:32:41;99668.03;;;21.49;45.79
55538;BME280;41383;51.418;7.286;2023-07-22T10:35:11;99661.94;;;21.56;45.35
55538;BME280;41383;51.418;7.286;2023-07-22T10:37:38;99662.31;;;21.67;44.98
55538;BME280;41383;51.418;7.286;2023-07-22T10:40:17;99664.28;;;21.79;44.80
55538;BME280;41383;51.418;7.286;2023-07-22T10:43:05;99667.41;;;21.77;44.66
55538;BME280;41383;51.418;7.286;2023-07-22T10:45:43;99662.91;;;21.39;44.47
55538;BME280;41383;51.418;7.286;2023-07-22T10:48:10;99656.31;;;21.77;44.74
55538;BME280;41383;51.418;7.286;2023-07-22T10:50:47;99663.34;;;21.75;43.21
55538;BME280;41383;51.418;7.286;2023-07-22T10:53:21;99652.25;;;21.75;43.52
55538;BME280;41383;51.418;7.286;2023-07-22T10:56:11;99657.78;;;22.09;44.24
55538;BME280;41383;51.418;7.286;2023-07-22T11:04:21;99632.78;;;22.34;42.77
55538;BME280;41383;51.418;7.286;2023-07-22T11:11:53;99624.34;;;22.43;43.04
55538;BME280;41383;51.418;7.286;2023-07-22T11:14:23;99619.81;;;22.50;42.25
55538;BME280;41383;51.418;7.286;2023-07-22T11:16:50;99621.91;;;22.41;41.94
55538;BME280;41383;51.418;7.286;2023-07-22T11:19:17;99616.34;;;22.41;42.30
55538;BME280;41383;51.418;7.286;2023-07-22T11:21:44;99611.97;;;22.27;40.97
55538;BME280;41383;51.418;7.286;2023-07-22T11:24:09;99614.16;;;22.09;41.96
55538;BME280;41383;51.418;7.286;2023-07-22T11:26:37;99611.03;;;22.23;40.93
55538;BME280;41383;51.418;7.286;2023-07-22T11:29:03;99611.00;;;22.61;40.95
55538;BME280;41383;51.418;7.286;2023-07-22T11:31:33;99604.41;;;22.66;40.70
55538;BME280;41383;51.418;7.286;2023-07-22T11:33:59;99600.59;;;22.99;40.74
55538;BME280;41383;51.418;7.286;2023-07-22T11:36:26;99599.53;;;23.04;39.49
55538;BME280;41383;51.418;7.286;2023-07-22T11:38:51;99612.13;;;23.14;39.94
55538;BME280;41383;51.418;7.286;2023-07-22T11:41:17;99601.91;;;23.18;39.13
55538;BME280;41383;51.418;7.286;2023-07-22T11:43:43;99594.44;;;23.06;39.52
55538;BME280;41383;51.418;7.286;2023-07-22T11:46:08;99597.22;;;23.06;39.11
55538;BME280;41383;51.418;7.286;2023-07-22T11:48:33;99608.06;;;23.11;39.23
55538;BME280;41383;51.418;7.286;2023-07-22T11:50:59;99600.00;;;23.06;39.91
55538;BME280;41383;51.418;7.286;2023-07-22T11:53:28;99602.22;;;23.29;39.26
55538;BME280;41383;51.418;7.286;2023-07-22T11:55:57;99601.16;;;23.50;39.34
55538;BME280;41383;51.418;7.286;2023-07-22T11:58:26;99594.56;;;23.26;39.14
55538;BME280;41383;51.418;7.286;2023-07-22T12:01:10;99588.81;;;23.47;38.79
55538;BME280;41383;51.418;7.286;2023-07-22T12:03:35;99600.38;;;23.49;39.02
55538;BME280;41383;51.418;7.286;2023-07-22T12:06:06;99594.09;;;23.52;39.15
55538;BME280;41383;51.418;7.286;2023-07-22T12:08:32;99587.25;;;23.50;39.07
55538;BME280;41383;51.418;7.286;2023-07-22T12:10:58;99584.69;;;23.57;39.28
55538;BME280;41383;51.418;7.286;2023-07-22T12:13:24;99578.22;;;23.53;39.13
55538;BME280;41383;51.418;7.286;2023-07-22T12:16:00;99567.94;;;23.25;39.90
55538;BME280;41383;51.418;7.286;2023-07-22T12:18:25;99576.97;;;23.21;39.80
55538;BME280;41383;51.418;7.286;2023-07-22T12:20:51;99568.59;;;23.83;40.44
55538;BME280;41383;51.418;7.286;2023-07-22T12:23:16;99564.66;;;24.00;39.47
55538;BME280;41383;51.418;7.286;2023-07-22T12:25:41;99573.72;;;23.64;39.13
55538;BME280;41383;51.418;7.286;2023-07-22T12:28:06;99563.13;;;23.09;39.39
55538;BME280;41383;51.418;7.286;2023-07-22T12:30:33;99563.06;;;23.21;39.80
55538;BME280;41383;51.418;7.286;2023-07-22T12:32:58;99568.97;;;23.65;39.66
55538;BME280;41383;51.418;7.286;2023-07-22T12:35:23;99565.44;;;23.84;39.20
55538;BME280;41383;51.418;7.286;2023-07-22T12:37:49;99563.47;;;24.01;38.47
55538;BME280;41383;51.418;7.286;2023-07-22T12:40:14;99546.22;;;23.95;38.39
55538;BME280;41383;51.418;7.286;2023-07-22T12:42:39;99560.81;;;24.08;38.58
55538;BME280;41383;51.418;7.286;2023-07-22T12:45:06;99557.13;;;24.36;37.36
55538;BME280;41383;51.418;7.286;2023-07-22T12:47:31;99552.00;;;24.39;36.37
55538;BME280;41383;51.418;7.286;2023-07-22T12:49:57;99546.28;;;24.15;36.16
55538;BME280;41383;51.418;7.286;2023-07-22T12:52:22;99549.38;;;23.94;36.32
55538;BME280;41383;51.418;7.286;2023-07-22T12:54:47;99549.28;;;24.22;36.35
55538;BME280;41383;51.418;7.286;2023-07-22T12:57:13;99550.81;;;24.59;36.91
55538;BME280;41383;51.418;7.286;2023-07-22T12:59:38;99544.22;;;24.68;35.78
55538;BME280;41383;51.418;7.286;2023-07-22T13:02:03;99543.94;;;24.17;36.17
55538;BME280;41383;51.418;7.286;2023-07-22T13:04:29;99545.22;;;24.04;36.73
55538;BME280;41383;51.418;7.286;2023-07-22T13:06:54;99543.34;;;24.08;36.58